Hlavní strana
METAR-TAF:

METAR-TAF

Letiště :

Tamanrasset, Alžírsko

zeměpisná šířka: 22-49N, zeměpisná délka: 005-28E, výška: 1377 m

Aktuální stav počasí

Zpráva byla vytvořena před 24 minutami, v 10:00 UTC
Východojihovýchodní vítr 11 kt
Teplota 28°C
Vlhkost vzduchu 12%
Tlak 1023 hPa
Viditelnost 10 km a více
Žádná oblačnost pod 1500 m, nevyskytují se cumulonimby.

METAR: DAAT 101000Z 12011KT CAVOK 28/M04 Q1023

Čas: 11:24 (10:24 UTC)

Předpověď počasí

Zpráva byla vytvořena před 5 hodinami a 24 minutami, v 05:00 UTC
Předpověď platná od 10 v 06 UTC do 11 v 06 UTC
Východní vítr 10 kt
Viditelnost: 9000 m
Pravděpodobnost 30% :
Dočasný
od 10 v 06 UTC do 10 v 11 UTC
Východní vítr 15 kt s nárazy do 25 kt
Změna
od 10 v 11 UTC do 10 v 14 UTC
Jihojihovýchodní vítr 12 kt
Změna
od 10 v 16 UTC do 10 v 18 UTC
Západojihozápadní vítr 10 kt

TAF: DAAT 100500Z 1006/1106 08010KT 9000 NSC PROB30 TEMPO 1006/1011 08015G25KT BECMG 1011/1014 15012KT BECMG 1016/1018 24010KT

Stav a předpovědi počasí z více než 4 000 letišť (zprávy METAR a TAF).

Červené a žluté tečky na mapě představují dostupné meteorologické stanice.

Když kurzor umístíte na tečku, zobrazí se název stanice.

Pak kliknutím zobrazíte stav a předpověď počasí.

Chcete-li změnit mapu, kliknutím na zelené tlačítko se znaménkem +mapu přiblížíte, kliknutím na zelené tlačítko se znaménkem – mapu oddálíte a kliknutím na zelené šipky přejdete na sousední mapy.


METAR-TAF: